Lähimpiä lentokenttien sääasemia

 

EFHK - Helsinki/Vantaa, Finland
Ilmasuunta ja etäisyys Sääasema Bassenraitista: KO 24km
Päivitetty: 23/01/2022 23:50
Mist, Enimmäkseen pilvistä
Mist, Enimmäkseen pilvistä
 Tuulen suunta ELO
Tuuli: ELO 22 km/h
Lämpötila: 1°C
Hyytävyys: -4°C
Kastepiste: 1°C
Kosteus: 100%
Ilmanpaine: 1023 hPa
Yhteenveto: Mist
Pilvet: Enimmäkseen pilvistä
Näkyvyys: 4 km
Pilvitiedot: Enimmäkseen pilvistä 61 m
2022/01/23 21:50 EFHK 232150Z 21012KT 4000 BR BKN002 01/01 Q1023 TEMPO 1300 VV001
EETN - Tallinn, Estonia
Ilmasuunta ja etäisyys Sääasema Bassenraitista: E 89km
Päivitetty: 23/01/2022 23:50
Light drizzle, Mist, Vaihetelvaa
Light drizzle, Mist, Vaihetelvaa
 Tuulen suunta ELO
Tuuli: ELO 19 km/h
Lämpötila: 1°C
Hyytävyys: -4°C
Kastepiste: 0°C
Kosteus: 93%
Ilmanpaine: 1025 hPa
Yhteenveto: Light drizzle, Mist
Pilvet: Vaihetelvaa
Näkyvyys: 5 km
Pilvitiedot: Vaihetelvaa 91 m
2022/01/23 21:50 EETN 232150Z 21010KT 4500 -DZ BR OVC003 01/00 Q1025 TEMPO 3000
 
EFTU - Turku/Abo, Finland
Ilmasuunta ja etäisyys Sääasema Bassenraitista: LLU 133km
Päivitetty: 23/01/2022 23:50

 Tuulen suunta E
Tuuli: E 13 km/h
Näkyvyys: 1 km
2022/01/23 21:50 EFTU 232150Z AUTO 19007KT 160V220 0800 0700 R26/0900N FG VV002 00/00 Q1021
EFTP - Tampere/Pirkkala, Finland
Ilmasuunta ja etäisyys Sääasema Bassenraitista: PLU 146km
Päivitetty: 23/01/2022 23:50
Mist, Vaihetelvaa
Mist, Vaihetelvaa
 Tuulen suunta E
Tuuli: E 13 km/h
Lämpötila: -1°C
Hyytävyys: -6°C
Kastepiste: -1°C
Kosteus: 100%
Ilmanpaine: 1019 hPa
Yhteenveto: Mist
Pilvet: Vaihetelvaa
Näkyvyys: 3 km
Pilvitiedot: Vaihetelvaa 30 m
2022/01/23 21:50 EFTP 232150Z AUTO 19007KT 150V210 3300 BR OVC001 M01/M01 Q1019
 
EFUT - Utti (fin-Afb), Finland
Ilmasuunta ja etäisyys Sääasema Bassenraitista: IKO 148km
Päivitetty: 23/01/2022 23:50
Light freezing, Sade, Vaihetelvaa
Light freezing, Sade, Vaihetelvaa
 Tuulen suunta LO
Tuuli: LO 19 km/h
Lämpötila: 0°C
Hyytävyys: -5°C
Kastepiste: 0°C
Kosteus: 100%
Ilmanpaine: 1021 hPa
Yhteenveto: Light freezing, Sade
Pilvet: Vaihetelvaa
Näkyvyys: 1 km
Pilvitiedot: Vaihetelvaa 30 m
2022/01/23 21:50 EFUT 232150Z AUTO 22010KT 0800 R07/1000N -FZRA VV001 M00/M00 Q1021
EEKA - Kardla, Estonia
Ilmasuunta ja etäisyys Sääasema Bassenraitista: LO 168km
Päivitetty: 23/01/2022 18:20
NOT Current
Vaihetelvaa
Vaihetelvaa
 Tuulen suunta ELO
Tuuli: ELO 15 km/h
Lämpötila: 1°C
Hyytävyys: -3°C
Kastepiste: 0°C
Kosteus: 93%
Ilmanpaine: 1025 hPa
Pilvet: Vaihetelvaa
Näkyvyys: 10 km
Pilvitiedot: Vaihetelvaa 152 m
2022/01/23 16:20 EEKA 231620Z 21008KT 170V250 9999 OVC005 01/00 Q1025
 
EFHA - Halli (fin-Afb), Finland
Ilmasuunta ja etäisyys Sääasema Bassenraitista: P 184km
Päivitetty: 23/01/2022 23:50
Mist, Vaihetelvaa
Mist, Vaihetelvaa
 Tuulen suunta E
Tuuli: E 11 km/h
Lämpötila: -1°C
Hyytävyys: -5°C
Kastepiste: -1°C
Kosteus: 100%
Ilmanpaine: 1019 hPa
Yhteenveto: Mist
Pilvet: Vaihetelvaa
Näkyvyys: 3 km
Pilvitiedot: Vaihetelvaa 30 m
2022/01/23 21:50 EFHA 232150Z AUTO 18006KT 150V210 2700 BR OVC001 M01/M01 Q1019
EEPU - Parnu, Estonia
Ilmasuunta ja etäisyys Sääasema Bassenraitista: E 198km
Päivitetty: 30/11/2020 16:20
NOT Current
Light snow, Mist, Vaihetelvaa
Light snow, Mist, Vaihetelvaa
 Tuulen suunta varies
Tuuli: varies 4 km/h
Lämpötila: 0°C
Kastepiste: 0°C
Kosteus: 100%
Ilmanpaine: 1015 hPa
Yhteenveto: Light snow, Mist
Pilvet: Vaihetelvaa
Näkyvyys: 4 km
Pilvitiedot: Enimmäkseen pilvistä 274 m
Vaihetelvaa 427 m
2020/11/30 14:20 EEPU 301420Z VRB02KT 3600 -SN BR BKN009 OVC014 M00/M00 Q1015
 
EFPO - Pori (mil/Civ), Finland
Ilmasuunta ja etäisyys Sääasema Bassenraitista: LU 207km
Päivitetty: 23/01/2022 23:50
Enimmäkseen pilvistä
Enimmäkseen pilvistä
 Tuulen suunta E
Tuuli: E 15 km/h
Lämpötila: -1°C
Hyytävyys: -6°C
Kastepiste: -2°C
Kosteus: 93%
Ilmanpaine: 1018 hPa
Pilvet: Enimmäkseen pilvistä
Näkyvyys: 10 km
Pilvitiedot: Enimmäkseen pilvistä 122 m
2022/01/23 21:50 EFPO 232150Z AUTO 18008KT 9999 BKN004 M01/M02 Q1018
EFLP - Lappeenranta, Finland
Ilmasuunta ja etäisyys Sääasema Bassenraitista: IKO 215km
Päivitetty: 23/01/2022 23:50
Patches of fog, Vaihetelvaa
Patches of fog, Vaihetelvaa
 Tuulen suunta LO
Tuuli: LO 19 km/h
Lämpötila: 0°C
Hyytävyys: -5°C
Kastepiste: -1°C
Kosteus: 93%
Ilmanpaine: 1021 hPa
Yhteenveto: Patches of Fog
Pilvet: Vaihetelvaa
Näkyvyys: 1 km
Pilvitiedot: Vaihetelvaa 61 m
2022/01/23 21:50 EFLP 232150Z AUTO 22010KT 1400 R06/1700N BCFG VV002 M00/M01 Q1021
 
EFMI - Mikkeli, Finland
Ilmasuunta ja etäisyys Sääasema Bassenraitista: KO 217km
Päivitetty: 23/01/2022 23:50
Mist, Vaihetelvaa
Mist, Vaihetelvaa
 Tuulen suunta E
Tuuli: E 11 km/h
Lämpötila: -1°C
Hyytävyys: -5°C
Kastepiste: -1°C
Kosteus: 100%
Ilmanpaine: 1020 hPa
Yhteenveto: Mist
Pilvet: Vaihetelvaa
Näkyvyys: 4 km
Pilvitiedot: Vaihetelvaa 61 m
2022/01/23 21:50 EFMI 232150Z AUTO 19006KT 150V220 4200 BR OVC002 M01/M01 Q1020
EETU - Tartu, Estonia
Ilmasuunta ja etäisyys Sääasema Bassenraitista: EKA 240km
Päivitetty: 23/01/2022 23:50
Vaihetelvaa
Vaihetelvaa
 Tuulen suunta ELO
Tuuli: ELO 19 km/h
Lämpötila: -2°C
Hyytävyys: -8°C
Kastepiste: -3°C
Kosteus: 93%
Ilmanpaine: 1028 hPa
Pilvet: Vaihetelvaa
Näkyvyys: 10 km
Pilvitiedot: Puolipilvistä 305 m
Enimmäkseen pilvistä 549 m
Vaihetelvaa 1615 m
2022/01/23 21:50 EETU 232150Z AUTO 21010KT 9999 SCT010/// BKN018/// OVC053/// M02/M03 Q1028
 
EEKE - Kuressaare, Estonia
Ilmasuunta ja etäisyys Sääasema Bassenraitista: ELO 249km
Päivitetty: 23/01/2022 23:50
Vaihetelvaa
Vaihetelvaa
 Tuulen suunta LO
Tuuli: LO 15 km/h
Lämpötila: 2°C
Hyytävyys: -2°C
Kastepiste: 1°C
Kosteus: 93%
Ilmanpaine: 1027 hPa
Pilvet: Vaihetelvaa
Näkyvyys: 6 km
Pilvitiedot: Vaihetelvaa 61 m
2022/01/23 21:50 EEKE 232150Z AUTO 22008KT 190V250 6000NDV OVC002 02/01 Q1027
EFJY - Jyvaskyla (mil/C, Finland
Ilmasuunta ja etäisyys Sääasema Bassenraitista: PKO 252km
Päivitetty: 23/01/2022 23:50
Vaihetelvaa
Vaihetelvaa
 Tuulen suunta ELO
Tuuli: ELO 13 km/h
Lämpötila: -1°C
Hyytävyys: -6°C
Kastepiste: -1°C
Kosteus: 100%
Ilmanpaine: 1018 hPa
Pilvet: Vaihetelvaa
Näkyvyys: 10 km
Pilvitiedot: Vaihetelvaa 61 m
2022/01/23 21:50 EFJY 232150Z AUTO 20007KT 9999 OVC002 M01/M01 Q1018
 
EFMA - Mariehamn/Aland, Finland
Ilmasuunta ja etäisyys Sääasema Bassenraitista: L 261km
Päivitetty: 23/01/2022 23:50
Enimmäkseen pilvistä
Enimmäkseen pilvistä
 Tuulen suunta ELO
Tuuli: ELO 19 km/h
Lämpötila: 1°C
Hyytävyys: -4°C
Kastepiste: 0°C
Kosteus: 93%
Ilmanpaine: 1020 hPa
Pilvet: Enimmäkseen pilvistä
Näkyvyys: 10 km
Pilvitiedot: Enimmäkseen pilvistä 61 m
2022/01/23 21:50 EFMA 232150Z AUTO 21010KT 9999 BKN002 01/00 Q1020
EFSI - Seinajoki-Ilmajo, Finland
Ilmasuunta ja etäisyys Sääasema Bassenraitista: PLU 294km
Päivitetty: 23/01/2022 23:50
Nearby showers, Thunderstorm
Nearby showers, Thunderstorm
 Tuulen suunta E
Tuuli: E 13 km/h
Lämpötila: 0°C
Hyytävyys: -4°C
Kastepiste: -2°C
Kosteus: 87%
Ilmanpaine: 1016 hPa
Yhteenveto: Nearby Showers
Pilvet: Thunderstorm
Näkyvyys: 10 km
2022/01/23 21:50 EFSI 232150Z AUTO 19007KT 9999 VCSH //////CB 00/M02 Q1016